sensor_id;sensor_type;location;lat;lon;timestamp;P1;durP1;ratioP1;P2;durP2;ratioP2
10088;SDS011;51898;49.864;8.550;2022-10-26T00:02:25;9.70;;;4.30;;
10088;SDS011;51898;49.864;8.550;2022-10-26T00:05:27;9.27;;;3.80;;
10088;SDS011;51898;49.864;8.550;2022-10-26T00:08:32;7.53;;;4.20;;
10088;SDS011;51898;49.864;8.550;2022-10-26T00:11:34;12.60;;;4.30;;
10088;SDS011;51898;49.864;8.550;2022-10-26T00:14:35;6.30;;;4.17;;
10088;SDS011;51898;49.864;8.550;2022-10-26T00:17:37;12.90;;;3.87;;
10088;SDS011;51898;49.864;8.550;2022-10-26T00:20:38;8.57;;;3.60;;
10088;SDS011;51898;49.864;8.550;2022-10-26T00:23:40;8.63;;;3.70;;
10088;SDS011;51898;49.864;8.550;2022-10-26T00:26:42;8.00;;;4.03;;
10088;SDS011;51898;49.864;8.550;2022-10-26T00:29:44;10.33;;;3.93;;
10088;SDS011;51898;49.864;8.550;2022-10-26T00:32:47;6.27;;;3.60;;
10088;SDS011;51898;49.864;8.550;2022-10-26T00:35:52;8.90;;;4.20;;
10088;SDS011;51898;49.864;8.550;2022-10-26T00:38:55;10.00;;;4.30;;
10088;SDS011;51898;49.864;8.550;2022-10-26T00:41:57;5.83;;;3.87;;
10088;SDS011;51898;49.864;8.550;2022-10-26T00:44:59;7.30;;;4.10;;
10088;SDS011;51898;49.864;8.550;2022-10-26T00:48:09;12.60;;;4.70;;
10088;SDS011;51898;49.864;8.550;2022-10-26T00:51:23;12.37;;;4.80;;
10088;SDS011;51898;49.864;8.550;2022-10-26T00:54:33;8.10;;;5.23;;
10088;SDS011;51898;49.864;8.550;2022-10-26T00:57:37;12.13;;;4.73;;
10088;SDS011;51898;49.864;8.550;2022-10-26T01:00:39;6.70;;;4.60;;
10088;SDS011;51898;49.864;8.550;2022-10-26T01:03:42;9.90;;;4.30;;
10088;SDS011;51898;49.864;8.550;2022-10-26T01:06:45;7.47;;;4.20;;
10088;SDS011;51898;49.864;8.550;2022-10-26T01:09:47;9.73;;;3.97;;
10088;SDS011;51898;49.864;8.550;2022-10-26T01:12:49;6.67;;;5.20;;
10088;SDS011;51898;49.864;8.550;2022-10-26T01:22:41;6.60;;;4.40;;
10088;SDS011;51898;49.864;8.550;2022-10-26T01:32:51;6.90;;;4.27;;
10088;SDS011;51898;49.864;8.550;2022-10-26T01:36:10;12.43;;;5.60;;
10088;SDS011;51898;49.864;8.550;2022-10-26T01:39:18;7.67;;;5.03;;
10088;SDS011;51898;49.864;8.550;2022-10-26T01:42:24;6.43;;;4.90;;
10088;SDS011;51898;49.864;8.550;2022-10-26T01:45:27;8.83;;;5.23;;
10088;SDS011;51898;49.864;8.550;2022-10-26T01:48:30;7.10;;;4.40;;
10088;SDS011;51898;49.864;8.550;2022-10-26T01:51:34;10.50;;;4.83;;
10088;SDS011;51898;49.864;8.550;2022-10-26T01:54:36;7.80;;;4.90;;
10088;SDS011;51898;49.864;8.550;2022-10-26T01:57:38;9.60;;;5.00;;
10088;SDS011;51898;49.864;8.550;2022-10-26T02:00:40;6.03;;;4.00;;
10088;SDS011;51898;49.864;8.550;2022-10-26T02:14:29;6.63;;;4.50;;
10088;SDS011;51898;49.864;8.550;2022-10-26T02:21:02;16.57;;;5.53;;
10088;SDS011;51898;49.864;8.550;2022-10-26T02:24:09;7.47;;;4.80;;
10088;SDS011;51898;49.864;8.550;2022-10-26T02:27:15;6.00;;;4.50;;
10088;SDS011;51898;49.864;8.550;2022-10-26T02:30:31;12.03;;;4.63;;
10088;SDS011;51898;49.864;8.550;2022-10-26T02:33:36;6.97;;;4.67;;
10088;SDS011;51898;49.864;8.550;2022-10-26T02:36:41;8.17;;;4.40;;
10088;SDS011;51898;49.864;8.550;2022-10-26T02:39:46;7.80;;;4.80;;
10088;SDS011;51898;49.864;8.550;2022-10-26T02:42:51;6.50;;;5.33;;
10088;SDS011;51898;49.864;8.550;2022-10-26T02:45:56;11.40;;;4.93;;
10088;SDS011;51898;49.864;8.550;2022-10-26T02:49:03;8.93;;;5.10;;
10088;SDS011;51898;49.864;8.550;2022-10-26T02:55:21;9.83;;;4.90;;
10088;SDS011;51898;49.864;8.550;2022-10-26T02:58:28;7.73;;;5.40;;
10088;SDS011;51898;49.864;8.550;2022-10-26T03:01:33;8.87;;;4.90;;
10088;SDS011;51898;49.864;8.550;2022-10-26T03:04:38;11.37;;;4.90;;
10088;SDS011;51898;49.864;8.550;2022-10-26T03:07:40;15.47;;;5.20;;
10088;SDS011;51898;49.864;8.550;2022-10-26T03:10:42;15.33;;;6.07;;
10088;SDS011;51898;49.864;8.550;2022-10-26T03:13:46;10.50;;;5.87;;
10088;SDS011;51898;49.864;8.550;2022-10-26T03:16:48;6.50;;;5.43;;
10088;SDS011;51898;49.864;8.550;2022-10-26T03:19:55;9.00;;;5.20;;
10088;SDS011;51898;49.864;8.550;2022-10-26T03:22:56;8.57;;;5.20;;
10088;SDS011;51898;49.864;8.550;2022-10-26T03:25:58;10.00;;;4.87;;
10088;SDS011;51898;49.864;8.550;2022-10-26T03:29:00;7.73;;;5.23;;
10088;SDS011;51898;49.864;8.550;2022-10-26T03:32:02;11.30;;;5.37;;
10088;SDS011;51898;49.864;8.550;2022-10-26T03:35:04;13.60;;;5.87;;
10088;SDS011;51898;49.864;8.550;2022-10-26T03:38:05;8.07;;;5.60;;
10088;SDS011;51898;49.864;8.550;2022-10-26T03:41:07;13.50;;;5.77;;
10088;SDS011;51898;49.864;8.550;2022-10-26T03:44:09;10.07;;;6.00;;
10088;SDS011;51898;49.864;8.550;2022-10-26T03:47:10;8.03;;;5.10;;
10088;SDS011;51898;49.864;8.550;2022-10-26T03:50:12;8.80;;;5.43;;
10088;SDS011;51898;49.864;8.550;2022-10-26T03:53:15;9.00;;;5.90;;
10088;SDS011;51898;49.864;8.550;2022-10-26T03:56:17;17.27;;;6.27;;
10088;SDS011;51898;49.864;8.550;2022-10-26T03:59:19;12.50;;;5.70;;
10088;SDS011;51898;49.864;8.550;2022-10-26T04:02:20;8.53;;;5.27;;
10088;SDS011;51898;49.864;8.550;2022-10-26T04:05:22;10.83;;;5.30;;
10088;SDS011;51898;49.864;8.550;2022-10-26T04:08:25;6.70;;;5.00;;
10088;SDS011;51898;49.864;8.550;2022-10-26T04:11:27;10.33;;;4.90;;
10088;SDS011;51898;49.864;8.550;2022-10-26T04:14:29;9.53;;;5.97;;
10088;SDS011;51898;49.864;8.550;2022-10-26T04:17:31;9.87;;;6.17;;
10088;SDS011;51898;49.864;8.550;2022-10-26T04:20:33;8.77;;;5.40;;
10088;SDS011;51898;49.864;8.550;2022-10-26T04:23:36;15.83;;;5.80;;
10088;SDS011;51898;49.864;8.550;2022-10-26T04:26:38;8.93;;;5.53;;
10088;SDS011;51898;49.864;8.550;2022-10-26T04:29:40;7.90;;;5.67;;
10088;SDS011;51898;49.864;8.550;2022-10-26T04:32:41;9.23;;;5.70;;
10088;SDS011;51898;49.864;8.550;2022-10-26T04:35:43;9.20;;;5.50;;
10088;SDS011;51898;49.864;8.550;2022-10-26T04:38:47;12.40;;;6.00;;
10088;SDS011;51898;49.864;8.550;2022-10-26T04:41:49;8.70;;;4.70;;
10088;SDS011;51898;49.864;8.550;2022-10-26T04:44:50;13.00;;;6.63;;
10088;SDS011;51898;49.864;8.550;2022-10-26T04:48:25;13.60;;;5.70;;
10088;SDS011;51898;49.864;8.550;2022-10-26T04:51:20;15.87;;;6.83;;
10088;SDS011;51898;49.864;8.550;2022-10-26T04:54:21;8.23;;;5.93;;
10088;SDS011;51898;49.864;8.550;2022-10-26T04:57:23;14.60;;;6.27;;
10088;SDS011;51898;49.864;8.550;2022-10-26T05:00:25;23.03;;;6.20;;
10088;SDS011;51898;49.864;8.550;2022-10-26T05:03:27;8.80;;;6.40;;
10088;SDS011;51898;49.864;8.550;2022-10-26T05:06:30;12.23;;;6.13;;
10088;SDS011;51898;49.864;8.550;2022-10-26T05:09:31;8.87;;;5.40;;
10088;SDS011;51898;49.864;8.550;2022-10-26T05:12:33;9.83;;;6.10;;
10088;SDS011;51898;49.864;8.550;2022-10-26T05:15:35;9.70;;;5.70;;
10088;SDS011;51898;49.864;8.550;2022-10-26T05:18:36;8.77;;;6.10;;
10088;SDS011;51898;49.864;8.550;2022-10-26T05:21:38;13.20;;;6.30;;
10088;SDS011;51898;49.864;8.550;2022-10-26T05:24:40;13.33;;;6.60;;
10088;SDS011;51898;49.864;8.550;2022-10-26T05:27:42;41.20;;;25.20;;
10088;SDS011;51898;49.864;8.550;2022-10-26T05:30:43;12.87;;;7.00;;
10088;SDS011;51898;49.864;8.550;2022-10-26T05:33:47;7.80;;;5.43;;
10088;SDS011;51898;49.864;8.550;2022-10-26T05:36:51;9.50;;;6.70;;
10088;SDS011;51898;49.864;8.550;2022-10-26T05:39:54;9.47;;;6.57;;
10088;SDS011;51898;49.864;8.550;2022-10-26T05:43:02;14.80;;;10.37;;
10088;SDS011;51898;49.864;8.550;2022-10-26T05:46:03;18.93;;;9.57;;
10088;SDS011;51898;49.864;8.550;2022-10-26T05:49:05;17.33;;;8.90;;
10088;SDS011;51898;49.864;8.550;2022-10-26T05:52:07;10.80;;;8.27;;
10088;SDS011;51898;49.864;8.550;2022-10-26T05:55:09;13.80;;;8.73;;
10088;SDS011;51898;49.864;8.550;2022-10-26T05:58:13;15.23;;;6.80;;
10088;SDS011;51898;49.864;8.550;2022-10-26T06:04:36;9.50;;;5.80;;
10088;SDS011;51898;49.864;8.550;2022-10-26T06:07:48;12.70;;;6.33;;
10088;SDS011;51898;49.864;8.550;2022-10-26T06:10:51;10.80;;;5.20;;
10088;SDS011;51898;49.864;8.550;2022-10-26T06:13:54;10.43;;;5.70;;
10088;SDS011;51898;49.864;8.550;2022-10-26T06:20:23;9.17;;;5.93;;
10088;SDS011;51898;49.864;8.550;2022-10-26T06:27:25;8.63;;;6.00;;
10088;SDS011;51898;49.864;8.550;2022-10-26T06:30:35;6.23;;;5.57;;
10088;SDS011;51898;49.864;8.550;2022-10-26T06:33:37;9.90;;;5.90;;
10088;SDS011;51898;49.864;8.550;2022-10-26T06:36:38;7.97;;;6.67;;
10088;SDS011;51898;49.864;8.550;2022-10-26T06:39:45;9.00;;;5.40;;
10088;SDS011;51898;49.864;8.550;2022-10-26T06:42:54;11.97;;;6.70;;
10088;SDS011;51898;49.864;8.550;2022-10-26T06:52:42;10.80;;;6.47;;
10088;SDS011;51898;49.864;8.550;2022-10-26T06:55:49;10.93;;;5.37;;
10088;SDS011;51898;49.864;8.550;2022-10-26T06:58:51;7.03;;;5.67;;
10088;SDS011;51898;49.864;8.550;2022-10-26T07:01:56;11.03;;;5.70;;
10088;SDS011;51898;49.864;8.550;2022-10-26T07:05:00;12.80;;;6.90;;
10088;SDS011;51898;49.864;8.550;2022-10-26T07:08:02;14.47;;;8.77;;
10088;SDS011;51898;49.864;8.550;2022-10-26T07:11:05;12.33;;;7.97;;
10088;SDS011;51898;49.864;8.550;2022-10-26T07:14:06;16.40;;;7.27;;
10088;SDS011;51898;49.864;8.550;2022-10-26T07:17:08;10.80;;;6.93;;
10088;SDS011;51898;49.864;8.550;2022-10-26T07:20:11;13.00;;;7.93;;
10088;SDS011;51898;49.864;8.550;2022-10-26T07:23:13;13.20;;;6.90;;
10088;SDS011;51898;49.864;8.550;2022-10-26T07:26:15;9.77;;;6.43;;
10088;SDS011;51898;49.864;8.550;2022-10-26T07:29:17;12.30;;;6.43;;
10088;SDS011;51898;49.864;8.550;2022-10-26T07:32:19;9.80;;;6.20;;
10088;SDS011;51898;49.864;8.550;2022-10-26T07:35:20;9.33;;;7.23;;
10088;SDS011;51898;49.864;8.550;2022-10-26T07:38:22;18.83;;;12.27;;
10088;SDS011;51898;49.864;8.550;2022-10-26T07:41:24;12.13;;;7.30;;
10088;SDS011;51898;49.864;8.550;2022-10-26T07:44:25;13.50;;;7.30;;
10088;SDS011;51898;49.864;8.550;2022-10-26T07:47:27;7.77;;;6.63;;
10088;SDS011;51898;49.864;8.550;2022-10-26T07:50:28;12.40;;;7.90;;
10088;SDS011;51898;49.864;8.550;2022-10-26T07:53:30;20.93;;;12.73;;
10088;SDS011;51898;49.864;8.550;2022-10-26T07:56:32;10.30;;;6.67;;
10088;SDS011;51898;49.864;8.550;2022-10-26T07:59:33;20.67;;;10.50;;
10088;SDS011;51898;49.864;8.550;2022-10-26T08:02:35;11.40;;;7.40;;
10088;SDS011;51898;49.864;8.550;2022-10-26T08:05:37;6.77;;;5.87;;
10088;SDS011;51898;49.864;8.550;2022-10-26T08:08:38;15.47;;;6.17;;
10088;SDS011;51898;49.864;8.550;2022-10-26T08:11:46;8.10;;;6.87;;
10088;SDS011;51898;49.864;8.550;2022-10-26T08:14:48;14.77;;;6.37;;
10088;SDS011;51898;49.864;8.550;2022-10-26T08:17:50;9.00;;;6.30;;
10088;SDS011;51898;49.864;8.550;2022-10-26T08:20:52;23.17;;;12.17;;
10088;SDS011;51898;49.864;8.550;2022-10-26T08:24:05;10.60;;;7.40;;
10088;SDS011;51898;49.864;8.550;2022-10-26T08:27:07;28.00;;;15.13;;
10088;SDS011;51898;49.864;8.550;2022-10-26T08:30:08;15.07;;;10.20;;
10088;SDS011;51898;49.864;8.550;2022-10-26T08:33:10;14.83;;;7.47;;
10088;SDS011;51898;49.864;8.550;2022-10-26T08:36:12;12.57;;;5.80;;
10088;SDS011;51898;49.864;8.550;2022-10-26T08:39:19;7.60;;;5.33;;
10088;SDS011;51898;49.864;8.550;2022-10-26T08:42:22;10.83;;;6.50;;
10088;SDS011;51898;49.864;8.550;2022-10-26T08:45:31;7.17;;;5.53;;
10088;SDS011;51898;49.864;8.550;2022-10-26T08:48:39;8.73;;;6.47;;
10088;SDS011;51898;49.864;8.550;2022-10-26T08:51:45;9.73;;;5.50;;
10088;SDS011;51898;49.864;8.550;2022-10-26T08:54:53;8.37;;;5.20;;
10088;SDS011;51898;49.864;8.550;2022-10-26T08:57:57;7.93;;;5.17;;
10088;SDS011;51898;49.864;8.550;2022-10-26T09:01:02;6.83;;;4.53;;
10088;SDS011;51898;49.864;8.550;2022-10-26T09:04:08;7.60;;;5.10;;
10088;SDS011;51898;49.864;8.550;2022-10-26T09:11:11;16.73;;;6.03;;
10088;SDS011;51898;49.864;8.550;2022-10-26T09:14:32;8.30;;;4.17;;
10088;SDS011;51898;49.864;8.550;2022-10-26T09:21:16;6.60;;;4.40;;
10088;SDS011;51898;49.864;8.550;2022-10-26T09:24:33;6.20;;;4.70;;
10088;SDS011;51898;49.864;8.550;2022-10-26T09:27:40;8.10;;;4.67;;
10088;SDS011;51898;49.864;8.550;2022-10-26T09:30:45;7.37;;;3.93;;
10088;SDS011;51898;49.864;8.550;2022-10-26T09:33:48;9.10;;;4.23;;
10088;SDS011;51898;49.864;8.550;2022-10-26T09:36:54;5.93;;;3.67;;
10088;SDS011;51898;49.864;8.550;2022-10-26T09:40:05;8.33;;;4.43;;
10088;SDS011;51898;49.864;8.550;2022-10-26T09:43:22;7.57;;;3.83;;
10088;SDS011;51898;49.864;8.550;2022-10-26T09:49:57;10.13;;;4.43;;
10088;SDS011;51898;49.864;8.550;2022-10-26T09:53:07;7.97;;;3.80;;
10088;SDS011;51898;49.864;8.550;2022-10-26T09:56:10;9.73;;;3.97;;
10088;SDS011;51898;49.864;8.550;2022-10-26T09:59:13;6.40;;;4.23;;
10088;SDS011;51898;49.864;8.550;2022-10-26T10:05:40;4.63;;;4.10;;
10088;SDS011;51898;49.864;8.550;2022-10-26T10:09:04;5.50;;;3.83;;
10088;SDS011;51898;49.864;8.550;2022-10-26T10:12:19;6.80;;;3.80;;
10088;SDS011;51898;49.864;8.550;2022-10-26T10:15:22;4.10;;;3.70;;
10088;SDS011;51898;49.864;8.550;2022-10-26T10:18:25;5.30;;;3.47;;
10088;SDS011;51898;49.864;8.550;2022-10-26T10:21:34;7.03;;;3.80;;
10088;SDS011;51898;49.864;8.550;2022-10-26T10:24:42;11.93;;;3.63;;
10088;SDS011;51898;49.864;8.550;2022-10-26T10:28:00;11.13;;;3.60;;
10088;SDS011;51898;49.864;8.550;2022-10-26T10:31:03;8.97;;;4.10;;
10088;SDS011;51898;49.864;8.550;2022-10-26T10:34:19;5.27;;;3.80;;
10088;SDS011;51898;49.864;8.550;2022-10-26T10:37:26;6.67;;;4.00;;
10088;SDS011;51898;49.864;8.550;2022-10-26T10:40:32;5.93;;;4.23;;
10088;SDS011;51898;49.864;8.550;2022-10-26T10:43:34;5.57;;;3.93;;
10088;SDS011;51898;49.864;8.550;2022-10-26T10:46:35;8.00;;;3.80;;
10088;SDS011;51898;49.864;8.550;2022-10-26T10:49:37;7.67;;;3.97;;
10088;SDS011;51898;49.864;8.550;2022-10-26T10:52:39;6.70;;;3.90;;
10088;SDS011;51898;49.864;8.550;2022-10-26T10:55:42;5.37;;;4.00;;
10088;SDS011;51898;49.864;8.550;2022-10-26T11:08:53;4.80;;;3.90;;
10088;SDS011;51898;49.864;8.550;2022-10-26T11:12:08;4.87;;;3.57;;
10088;SDS011;51898;49.864;8.550;2022-10-26T11:15:16;5.30;;;3.77;;
10088;SDS011;51898;49.864;8.550;2022-10-26T11:18:26;9.60;;;3.37;;
10088;SDS011;51898;49.864;8.550;2022-10-26T11:21:37;8.30;;;3.17;;
10088;SDS011;51898;49.864;8.550;2022-10-26T11:24:41;5.30;;;3.70;;
10088;SDS011;51898;49.864;8.550;2022-10-26T11:27:53;7.93;;;3.97;;
10088;SDS011;51898;49.864;8.550;2022-10-26T11:30:59;8.77;;;4.23;;
10088;SDS011;51898;49.864;8.550;2022-10-26T11:34:15;5.73;;;3.40;;
10088;SDS011;51898;49.864;8.550;2022-10-26T11:37:31;9.00;;;3.57;;
10088;SDS011;51898;49.864;8.550;2022-10-26T11:40:54;9.37;;;4.30;;
10088;SDS011;51898;49.864;8.550;2022-10-26T11:44:04;8.70;;;4.10;;
10088;SDS011;51898;49.864;8.550;2022-10-26T11:47:15;9.23;;;3.80;;
10088;SDS011;51898;49.864;8.550;2022-10-26T11:50:22;8.27;;;3.70;;
10088;SDS011;51898;49.864;8.550;2022-10-26T11:53:28;6.73;;;3.50;;
10088;SDS011;51898;49.864;8.550;2022-10-26T11:56:37;7.87;;;3.50;;
10088;SDS011;51898;49.864;8.550;2022-10-26T11:59:48;7.47;;;3.27;;
10088;SDS011;51898;49.864;8.550;2022-10-26T12:03:01;8.10;;;3.43;;
10088;SDS011;51898;49.864;8.550;2022-10-26T12:06:09;9.40;;;4.50;;
10088;SDS011;51898;49.864;8.550;2022-10-26T12:09:12;11.47;;;4.20;;
10088;SDS011;51898;49.864;8.550;2022-10-26T12:15:32;6.40;;;3.37;;
10088;SDS011;51898;49.864;8.550;2022-10-26T12:19:04;4.60;;;3.13;;
10088;SDS011;51898;49.864;8.550;2022-10-26T12:22:16;10.63;;;3.27;;
10088;SDS011;51898;49.864;8.550;2022-10-26T12:25:20;5.57;;;2.73;;
10088;SDS011;51898;49.864;8.550;2022-10-26T12:28:37;4.30;;;2.83;;
10088;SDS011;51898;49.864;8.550;2022-10-26T12:31:41;7.57;;;2.80;;
10088;SDS011;51898;49.864;8.550;2022-10-26T12:37:45;5.63;;;3.93;;
10088;SDS011;51898;49.864;8.550;2022-10-26T12:40:47;4.30;;;2.93;;
10088;SDS011;51898;49.864;8.550;2022-10-26T12:44:30;7.03;;;3.30;;
10088;SDS011;51898;49.864;8.550;2022-10-26T12:50:36;4.77;;;2.70;;
10088;SDS011;51898;49.864;8.550;2022-10-26T12:53:38;7.00;;;2.70;;
10088;SDS011;51898;49.864;8.550;2022-10-26T12:59:52;4.40;;;2.60;;
10088;SDS011;51898;49.864;8.550;2022-10-26T13:06:53;6.63;;;3.23;;
10088;SDS011;51898;49.864;8.550;2022-10-26T13:13:20;12.03;;;3.80;;
10088;SDS011;51898;49.864;8.550;2022-10-26T13:16:25;8.10;;;3.57;;
10088;SDS011;51898;49.864;8.550;2022-10-26T13:22:43;4.33;;;2.87;;
10088;SDS011;51898;49.864;8.550;2022-10-26T13:29:15;7.53;;;3.20;;
10088;SDS011;51898;49.864;8.550;2022-10-26T13:32:16;10.43;;;3.20;;
10088;SDS011;51898;49.864;8.550;2022-10-26T13:35:19;5.10;;;2.40;;
10088;SDS011;51898;49.864;8.550;2022-10-26T13:38:25;4.97;;;2.40;;
10088;SDS011;51898;49.864;8.550;2022-10-26T13:41:38;5.23;;;2.40;;
10088;SDS011;51898;49.864;8.550;2022-10-26T13:45:20;5.43;;;2.73;;
10088;SDS011;51898;49.864;8.550;2022-10-26T13:48:17;5.33;;;2.10;;
10088;SDS011;51898;49.864;8.550;2022-10-26T13:51:34;3.93;;;2.40;;
10088;SDS011;51898;49.864;8.550;2022-10-26T13:54:46;7.70;;;2.70;;
10088;SDS011;51898;49.864;8.550;2022-10-26T13:58:08;3.37;;;2.77;;
10088;SDS011;51898;49.864;8.550;2022-10-26T14:01:20;5.93;;;2.40;;
10088;SDS011;51898;49.864;8.550;2022-10-26T14:04:26;5.70;;;2.60;;
10088;SDS011;51898;49.864;8.550;2022-10-26T14:07:32;5.60;;;2.00;;
10088;SDS011;51898;49.864;8.550;2022-10-26T14:10:40;3.03;;;2.43;;
10088;SDS011;51898;49.864;8.550;2022-10-26T14:13:46;7.43;;;2.57;;
10088;SDS011;51898;49.864;8.550;2022-10-26T14:16:50;3.80;;;2.50;;
10088;SDS011;51898;49.864;8.550;2022-10-26T14:19:53;6.13;;;2.63;;
10088;SDS011;51898;49.864;8.550;2022-10-26T14:22:55;3.97;;;2.20;;
10088;SDS011;51898;49.864;8.550;2022-10-26T14:25:57;2.73;;;2.10;;
10088;SDS011;51898;49.864;8.550;2022-10-26T14:29:00;7.80;;;3.17;;
10088;SDS011;51898;49.864;8.550;2022-10-26T14:32:18;5.33;;;2.90;;
10088;SDS011;51898;49.864;8.550;2022-10-26T14:35:28;8.37;;;3.10;;
10088;SDS011;51898;49.864;8.550;2022-10-26T14:38:35;8.70;;;3.00;;
10088;SDS011;51898;49.864;8.550;2022-10-26T14:41:43;9.00;;;2.83;;
10088;SDS011;51898;49.864;8.550;2022-10-26T14:44:44;5.67;;;3.13;;
10088;SDS011;51898;49.864;8.550;2022-10-26T14:47:47;5.93;;;3.10;;
10088;SDS011;51898;49.864;8.550;2022-10-26T14:54:25;5.33;;;2.70;;
10088;SDS011;51898;49.864;8.550;2022-10-26T14:57:35;8.37;;;2.87;;
10088;SDS011;51898;49.864;8.550;2022-10-26T15:00:39;6.87;;;2.50;;
10088;SDS011;51898;49.864;8.550;2022-10-26T15:03:42;5.90;;;2.70;;
10088;SDS011;51898;49.864;8.550;2022-10-26T15:06:44;3.53;;;2.23;;
10088;SDS011;51898;49.864;8.550;2022-10-26T15:12:49;11.60;;;2.70;;
10088;SDS011;51898;49.864;8.550;2022-10-26T15:15:51;5.37;;;2.37;;
10088;SDS011;51898;49.864;8.550;2022-10-26T15:19:12;2.90;;;2.60;;
10088;SDS011;51898;49.864;8.550;2022-10-26T15:22:25;7.13;;;3.00;;
10088;SDS011;51898;49.864;8.550;2022-10-26T15:25:32;4.83;;;2.80;;
10088;SDS011;51898;49.864;8.550;2022-10-26T15:31:36;7.37;;;2.70;;
10088;SDS011;51898;49.864;8.550;2022-10-26T15:34:37;7.43;;;3.30;;
10088;SDS011;51898;49.864;8.550;2022-10-26T15:37:39;9.10;;;3.57;;
10088;SDS011;51898;49.864;8.550;2022-10-26T15:40:42;5.43;;;3.20;;
10088;SDS011;51898;49.864;8.550;2022-10-26T15:43:46;7.60;;;4.50;;
10088;SDS011;51898;49.864;8.550;2022-10-26T15:46:49;6.17;;;3.77;;
10088;SDS011;51898;49.864;8.550;2022-10-26T15:49:51;4.90;;;4.07;;
10088;SDS011;51898;49.864;8.550;2022-10-26T15:52:54;7.80;;;3.50;;
10088;SDS011;51898;49.864;8.550;2022-10-26T15:56:03;7.40;;;3.57;;
10088;SDS011;51898;49.864;8.550;2022-10-26T15:59:12;8.63;;;3.80;;
10088;SDS011;51898;49.864;8.550;2022-10-26T16:02:18;7.67;;;4.43;;
10088;SDS011;51898;49.864;8.550;2022-10-26T16:05:20;5.73;;;3.57;;
10088;SDS011;51898;49.864;8.550;2022-10-26T16:08:22;9.63;;;3.57;;
10088;SDS011;51898;49.864;8.550;2022-10-26T16:11:23;9.50;;;3.63;;
10088;SDS011;51898;49.864;8.550;2022-10-26T16:14:25;10.50;;;4.17;;
10088;SDS011;51898;49.864;8.550;2022-10-26T16:17:33;6.23;;;3.83;;
10088;SDS011;51898;49.864;8.550;2022-10-26T16:20:35;6.27;;;4.63;;
10088;SDS011;51898;49.864;8.550;2022-10-26T16:23:37;9.63;;;3.60;;
10088;SDS011;51898;49.864;8.550;2022-10-26T16:26:38;9.90;;;3.80;;
10088;SDS011;51898;49.864;8.550;2022-10-26T16:29:40;9.10;;;3.97;;
10088;SDS011;51898;49.864;8.550;2022-10-26T16:32:42;7.53;;;3.80;;
10088;SDS011;51898;49.864;8.550;2022-10-26T16:35:43;10.90;;;4.43;;
10088;SDS011;51898;49.864;8.550;2022-10-26T16:38:45;9.63;;;4.00;;
10088;SDS011;51898;49.864;8.550;2022-10-26T16:41:47;9.90;;;3.97;;
10088;SDS011;51898;49.864;8.550;2022-10-26T16:44:50;7.37;;;3.53;;
10088;SDS011;51898;49.864;8.550;2022-10-26T16:47:52;6.13;;;4.17;;
10088;SDS011;51898;49.864;8.550;2022-10-26T16:50:54;8.37;;;4.60;;
10088;SDS011;51898;49.864;8.550;2022-10-26T16:53:55;8.73;;;4.70;;
10088;SDS011;51898;49.864;8.550;2022-10-26T16:56:57;8.13;;;3.70;;
10088;SDS011;51898;49.864;8.550;2022-10-26T16:59:59;12.07;;;4.13;;
10088;SDS011;51898;49.864;8.550;2022-10-26T17:03:01;10.20;;;4.10;;
10088;SDS011;51898;49.864;8.550;2022-10-26T17:06:03;6.33;;;3.80;;
10088;SDS011;51898;49.864;8.550;2022-10-26T17:09:07;9.43;;;5.37;;
10088;SDS011;51898;49.864;8.550;2022-10-26T17:12:08;5.17;;;3.63;;
10088;SDS011;51898;49.864;8.550;2022-10-26T17:15:11;10.20;;;3.50;;
10088;SDS011;51898;49.864;8.550;2022-10-26T17:18:19;7.60;;;5.10;;
10088;SDS011;51898;49.864;8.550;2022-10-26T17:21:27;7.83;;;4.57;;
10088;SDS011;51898;49.864;8.550;2022-10-26T17:24:31;6.67;;;3.67;;
10088;SDS011;51898;49.864;8.550;2022-10-26T17:27:32;7.10;;;3.93;;
10088;SDS011;51898;49.864;8.550;2022-10-26T17:30:34;13.03;;;4.07;;
10088;SDS011;51898;49.864;8.550;2022-10-26T17:33:36;6.83;;;4.10;;
10088;SDS011;51898;49.864;8.550;2022-10-26T17:36:39;8.57;;;4.60;;
10088;SDS011;51898;49.864;8.550;2022-10-26T17:39:41;7.57;;;5.20;;
10088;SDS011;51898;49.864;8.550;2022-10-26T17:42:45;6.40;;;4.90;;
10088;SDS011;51898;49.864;8.550;2022-10-26T17:45:47;9.00;;;5.40;;
10088;SDS011;51898;49.864;8.550;2022-10-26T17:48:52;7.90;;;5.70;;
10088;SDS011;51898;49.864;8.550;2022-10-26T17:51:58;14.47;;;5.30;;
10088;SDS011;51898;49.864;8.550;2022-10-26T17:55:00;6.73;;;5.40;;
10088;SDS011;51898;49.864;8.550;2022-10-26T17:58:03;8.20;;;5.90;;
10088;SDS011;51898;49.864;8.550;2022-10-26T18:01:06;11.63;;;5.97;;
10088;SDS011;51898;49.864;8.550;2022-10-26T18:04:09;10.27;;;5.97;;
10088;SDS011;51898;49.864;8.550;2022-10-26T18:07:11;13.90;;;6.07;;
10088;SDS011;51898;49.864;8.550;2022-10-26T18:10:12;9.27;;;6.37;;
10088;SDS011;51898;49.864;8.550;2022-10-26T18:13:34;7.60;;;4.80;;
10088;SDS011;51898;49.864;8.550;2022-10-26T18:16:35;7.40;;;5.70;;
10088;SDS011;51898;49.864;8.550;2022-10-26T18:19:37;10.13;;;6.03;;
10088;SDS011;51898;49.864;8.550;2022-10-26T18:22:39;9.57;;;6.27;;
10088;SDS011;51898;49.864;8.550;2022-10-26T18:25:40;13.90;;;6.20;;
10088;SDS011;51898;49.864;8.550;2022-10-26T18:28:42;10.90;;;6.83;;
10088;SDS011;51898;49.864;8.550;2022-10-26T18:31:44;14.40;;;6.17;;
10088;SDS011;51898;49.864;8.550;2022-10-26T18:34:46;9.03;;;5.67;;
10088;SDS011;51898;49.864;8.550;2022-10-26T18:37:47;11.40;;;5.77;;
10088;SDS011;51898;49.864;8.550;2022-10-26T18:40:50;9.40;;;5.93;;
10088;SDS011;51898;49.864;8.550;2022-10-26T18:43:54;11.90;;;5.00;;
10088;SDS011;51898;49.864;8.550;2022-10-26T18:46:59;14.50;;;5.80;;
10088;SDS011;51898;49.864;8.550;2022-10-26T18:50:01;14.10;;;6.07;;
10088;SDS011;51898;49.864;8.550;2022-10-26T18:53:02;9.60;;;6.00;;
10088;SDS011;51898;49.864;8.550;2022-10-26T18:56:07;8.50;;;6.03;;
10088;SDS011;51898;49.864;8.550;2022-10-26T18:59:10;7.35;;;5.75;;
10088;SDS011;51898;49.864;8.550;2022-10-26T19:02:13;8.33;;;5.70;;
10088;SDS011;51898;49.864;8.550;2022-10-26T19:05:14;11.80;;;6.03;;
10088;SDS011;51898;49.864;8.550;2022-10-26T19:08:16;9.83;;;6.00;;
10088;SDS011;51898;49.864;8.550;2022-10-26T19:11:18;8.53;;;5.07;;
10088;SDS011;51898;49.864;8.550;2022-10-26T19:14:21;6.63;;;5.47;;
10088;SDS011;51898;49.864;8.550;2022-10-26T19:17:23;12.07;;;6.53;;
10088;SDS011;51898;49.864;8.550;2022-10-26T19:20:25;10.10;;;6.50;;
10088;SDS011;51898;49.864;8.550;2022-10-26T19:23:33;9.53;;;6.27;;
10088;SDS011;51898;49.864;8.550;2022-10-26T19:26:36;8.33;;;5.00;;
10088;SDS011;51898;49.864;8.550;2022-10-26T19:29:43;10.30;;;6.20;;
10088;SDS011;51898;49.864;8.550;2022-10-26T19:32:45;11.27;;;6.57;;
10088;SDS011;51898;49.864;8.550;2022-10-26T19:35:47;12.57;;;7.87;;
10088;SDS011;51898;49.864;8.550;2022-10-26T19:38:48;12.87;;;6.90;;
10088;SDS011;51898;49.864;8.550;2022-10-26T19:41:50;7.43;;;6.33;;
10088;SDS011;51898;49.864;8.550;2022-10-26T19:44:52;11.43;;;7.30;;
10088;SDS011;51898;49.864;8.550;2022-10-26T19:47:54;12.03;;;8.93;;
10088;SDS011;51898;49.864;8.550;2022-10-26T19:50:56;16.93;;;8.40;;
10088;SDS011;51898;49.864;8.550;2022-10-26T19:53:58;10.47;;;7.70;;
10088;SDS011;51898;49.864;8.550;2022-10-26T19:57:04;9.63;;;7.17;;
10088;SDS011;51898;49.864;8.550;2022-10-26T20:00:06;12.53;;;7.30;;
10088;SDS011;51898;49.864;8.550;2022-10-26T20:03:09;11.83;;;7.20;;
10088;SDS011;51898;49.864;8.550;2022-10-26T20:06:11;10.73;;;6.13;;
10088;SDS011;51898;49.864;8.550;2022-10-26T20:09:13;11.40;;;6.90;;
10088;SDS011;51898;49.864;8.550;2022-10-26T20:12:20;12.00;;;6.27;;
10088;SDS011;51898;49.864;8.550;2022-10-26T20:15:21;8.57;;;6.93;;
10088;SDS011;51898;49.864;8.550;2022-10-26T20:18:23;15.50;;;7.27;;